Time;durP1;ratioP1;P1;durP2;ratioP2;P2;SDS_P1;SDS_P2;PMS_P1;PMS_P2;Temp;Humidity;BMP_temperature;BMP_pressure;BME280_temperature;BME280_humidity;BME280_pressure;Samples;Min_cycle;Max_cycle;Signal;HPM_P1;HPM_P2
2024/02/14 00:00:09;;;;;;;6.55;3.58;;;;;;;;;;4979049;28;20053;-64
2024/02/14 00:02:36;;;;;;;6.88;3.60;;;;;;;;;;4981140;28;20427;-61
2024/02/14 00:05:03;;;;;;;6.32;3.50;;;;;;;;;;4981640;28;20038;-63
2024/02/14 00:07:31;;;;;;;7.13;2.78;;;;;;;;;;4968869;28;20049;-63
2024/02/14 00:09:57;;;;;;;4.07;2.30;;;;;;;;;;4980910;28;20043;-63
2024/02/14 00:12:24;;;;;;;5.68;2.72;;;;;;;;;;4979157;28;20086;-64
2024/02/14 00:14:50;;;;;;;5.40;2.50;;;;;;;;;;4979808;28;20535;-64
2024/02/14 00:17:16;;;;;;;7.03;2.50;;;;;;;;;;4977929;28;20070;-63
2024/02/14 00:19:43;;;;;;;6.25;2.67;;;;;;;;;;4979238;28;20495;-63
2024/02/14 00:22:09;;;;;;;9.05;3.38;;;;;;;;;;4980474;28;20043;-63
2024/02/14 00:24:35;;;;;;;11.55;5.70;;;;;;;;;;4978200;28;20034;-64
2024/02/14 00:27:03;;;;;;;16.88;7.72;;;;;;;;;;4980831;28;20042;-64
2024/02/14 00:29:29;;;;;;;19.88;9.02;;;;;;;;;;4980222;28;20034;-64
2024/02/14 00:31:55;;;;;;;17.48;8.27;;;;;;;;;;4978137;28;20123;-65
2024/02/14 00:34:22;;;;;;;16.25;8.05;;;;;;;;;;4983510;28;20042;-64
2024/02/14 00:36:48;;;;;;;17.58;8.48;;;;;;;;;;4978847;28;20039;-64
2024/02/14 00:39:15;;;;;;;15.45;7.97;;;;;;;;;;4978839;28;20047;-64
2024/02/14 00:41:41;;;;;;;14.65;7.57;;;;;;;;;;4979885;28;20031;-64
2024/02/14 00:44:07;;;;;;;14.63;8.27;;;;;;;;;;4978269;28;20046;-64
2024/02/14 00:46:33;;;;;;;19.20;8.93;;;;;;;;;;4983180;28;20375;-64
2024/02/14 00:48:59;;;;;;;17.63;7.47;;;;;;;;;;4980677;28;20406;-64
2024/02/14 00:51:25;;;;;;;8.02;4.72;;;;;;;;;;4979509;28;20042;-64
2024/02/14 00:53:52;;;;;;;7.97;3.35;;;;;;;;;;4978663;28;20034;-65
2024/02/14 00:56:18;;;;;;;9.32;3.20;;;;;;;;;;4983274;28;20043;-64
2024/02/14 00:58:44;;;;;;;3.20;2.25;;;;;;;;;;4982464;28;20451;-64
2024/02/14 01:01:11;;;;;;;3.90;2.53;;;;;;;;;;4981692;28;20049;-64
2024/02/14 01:03:38;;;;;;;8.05;2.22;;;;;;;;;;4985653;28;20042;-63
2024/02/14 01:06:04;;;;;;;4.25;2.10;;;;;;;;;;4981463;28;20050;-63
2024/02/14 01:08:30;;;;;;;5.47;2.55;;;;;;;;;;4981783;28;20038;-63
2024/02/14 01:10:56;;;;;;;3.83;1.98;;;;;;;;;;4983153;28;20615;-63
2024/02/14 01:13:22;;;;;;;4.10;2.15;;;;;;;;;;4983136;28;20038;-63
2024/02/14 01:15:49;;;;;;;8.38;2.20;;;;;;;;;;4984312;28;20042;-63
2024/02/14 01:18:15;;;;;;;6.13;2.50;;;;;;;;;;4981796;28;20418;-63
2024/02/14 01:20:41;;;;;;;3.95;2.40;;;;;;;;;;4983019;28;20046;-62
2024/02/14 01:23:07;;;;;;;8.88;2.58;;;;;;;;;;4981442;28;20054;-63
2024/02/14 01:25:46;;;;;;;6.95;2.63;;;;;;;;;;4987753;28;20269;-63
2024/02/14 01:28:12;;;;;;;3.70;2.15;;;;;;;;;;4979948;28;20050;-62
2024/02/14 01:30:38;;;;;;;11.63;5.18;;;;;;;;;;4984586;28;20045;-62
2024/02/14 01:33:04;;;;;;;5.63;2.60;;;;;;;;;;4980204;28;20449;-63
2024/02/14 01:35:30;;;;;;;3.33;2.13;;;;;;;;;;4977147;28;20516;-63
2024/02/14 01:37:57;;;;;;;3.90;2.00;;;;;;;;;;4979786;28;20042;-63
2024/02/14 01:40:23;;;;;;;3.13;2.10;;;;;;;;;;4978487;28;20043;-63
2024/02/14 01:42:55;;;;;;;4.03;2.00;;;;;;;;;;4979388;28;20046;-64
2024/02/14 01:45:21;;;;;;;3.55;2.10;;;;;;;;;;4983468;28;20050;-63
2024/02/14 01:47:59;;;;;;;2.25;2.03;;;;;;;;;;4982143;28;20054;-63
2024/02/14 01:50:29;;;;;;;6.57;2.40;;;;;;;;;;4983871;28;20065;-64
2024/02/14 01:53:00;;;;;;;7.00;2.13;;;;;;;;;;4983135;28;20042;-63
2024/02/14 01:55:27;;;;;;;5.78;2.90;;;;;;;;;;4981112;28;20046;-64
2024/02/14 01:57:55;;;;;;;5.88;2.50;;;;;;;;;;4980415;28;20070;-64
2024/02/14 02:00:21;;;;;;;7.13;2.65;;;;;;;;;;4982918;28;20065;-64
2024/02/14 02:02:48;;;;;;;6.05;2.05;;;;;;;;;;4982615;28;20069;-63
2024/02/14 02:05:19;;;;;;;4.85;2.35;;;;;;;;;;4982138;28;20062;-64
2024/02/14 02:07:48;;;;;;;4.57;2.45;;;;;;;;;;4979446;28;20045;-64
2024/02/14 02:10:14;;;;;;;3.38;2.03;;;;;;;;;;4981190;28;20042;-63
2024/02/14 02:12:46;;;;;;;3.70;2.13;;;;;;;;;;4982697;28;20077;-63
2024/02/14 02:15:32;;;;;;;7.78;2.50;;;;;;;;;;4974797;28;20042;-64
2024/02/14 02:18:19;;;;;;;4.00;1.80;;;;;;;;;;4970437;28;20049;-63
2024/02/14 02:21:06;;;;;;;7.18;4.25;;;;;;;;;;4983455;28;20413;-63
2024/02/14 02:23:34;;;;;;;11.30;4.13;;;;;;;;;;4973751;28;20663;-64
2024/02/14 02:26:00;;;;;;;15.05;6.78;;;;;;;;;;4975907;28;20050;-63
2024/02/14 02:28:46;;;;;;;12.18;5.95;;;;;;;;;;4974888;28;20042;-64
2024/02/14 02:31:12;;;;;;;11.70;6.57;;;;;;;;;;4979025;28;20054;-64
2024/02/14 02:33:41;;;;;;;11.52;6.40;;;;;;;;;;4979497;28;20685;-64
2024/02/14 02:36:09;;;;;;;12.15;6.40;;;;;;;;;;4980639;28;20049;-64
2024/02/14 02:38:57;;;;;;;12.10;5.93;;;;;;;;;;4979130;28;20047;-64
2024/02/14 02:41:46;;;;;;;10.93;5.43;;;;;;;;;;4977936;28;20483;-63
2024/02/14 02:44:31;;;;;;;9.63;4.82;;;;;;;;;;4981320;28;20038;-64
2024/02/14 02:47:16;;;;;;;10.88;5.38;;;;;;;;;;4984860;28;20042;-64
2024/02/14 02:50:03;;;;;;;8.60;4.93;;;;;;;;;;4983804;28;20038;-64
2024/02/14 02:52:49;;;;;;;8.23;5.18;;;;;;;;;;4983885;28;20097;-64
2024/02/14 02:55:37;;;;;;;8.85;5.03;;;;;;;;;;4983012;28;20038;-65
2024/02/14 02:58:05;;;;;;;8.35;4.90;;;;;;;;;;4976650;28;20035;-64
2024/02/14 03:00:31;;;;;;;10.05;5.22;;;;;;;;;;4982089;28;20046;-64
2024/02/14 03:03:08;;;;;;;8.65;4.75;;;;;;;;;;4979094;28;20046;-64
2024/02/14 03:05:51;;;;;;;6.70;4.00;;;;;;;;;;4965099;28;20034;-64
2024/02/14 03:08:37;;;;;;;7.35;3.97;;;;;;;;;;4980274;28;20043;-65
2024/02/14 03:11:25;;;;;;;5.72;3.63;;;;;;;;;;4979178;28;20054;-64
2024/02/14 03:14:10;;;;;;;6.05;3.42;;;;;;;;;;4980145;28;20038;-65
2024/02/14 03:16:59;;;;;;;8.82;2.83;;;;;;;;;;4974242;28;20542;-64
2024/02/14 03:19:27;;;;;;;4.72;2.78;;;;;;;;;;4982214;28;20050;-62
2024/02/14 03:21:54;;;;;;;6.95;2.30;;;;;;;;;;4985466;28;20050;-63
2024/02/14 03:24:20;;;;;;;2.88;1.90;;;;;;;;;;4985234;28;20058;-63
2024/02/14 03:26:46;;;;;;;3.88;1.90;;;;;;;;;;4979485;28;20051;-63
2024/02/14 03:29:12;;;;;;;3.15;1.80;;;;;;;;;;4981503;28;21550;-61
2024/02/14 03:31:39;;;;;;;3.50;1.95;;;;;;;;;;4980815;28;20046;-64
2024/02/14 03:34:05;;;;;;;7.63;2.42;;;;;;;;;;4975903;28;20495;-63
2024/02/14 03:36:32;;;;;;;4.63;2.03;;;;;;;;;;4975600;28;20054;-63
2024/02/14 03:39:00;;;;;;;3.22;1.95;;;;;;;;;;4981130;28;20038;-64
2024/02/14 03:41:27;;;;;;;6.65;2.15;;;;;;;;;;4981058;28;20042;-64
2024/02/14 03:43:58;;;;;;;5.90;2.17;;;;;;;;;;4980410;28;20034;-63
2024/02/14 03:46:24;;;;;;;4.35;2.30;;;;;;;;;;4980141;28;20042;-62
2024/02/14 03:48:51;;;;;;;6.00;2.00;;;;;;;;;;4985535;28;20034;-62
2024/02/14 03:51:17;;;;;;;3.22;1.98;;;;;;;;;;4979589;28;20047;-63
2024/02/14 03:53:43;;;;;;;5.40;2.00;;;;;;;;;;4985608;28;20058;-63
2024/02/14 03:56:09;;;;;;;4.43;2.00;;;;;;;;;;4984957;28;20047;-63
2024/02/14 03:58:37;;;;;;;5.75;2.03;;;;;;;;;;4983003;28;20069;-63
2024/02/14 04:01:04;;;;;;;2.58;1.90;;;;;;;;;;4983755;28;20053;-63
2024/02/14 04:03:30;;;;;;;5.18;2.28;;;;;;;;;;4982820;28;20645;-64
2024/02/14 04:05:56;;;;;;;3.35;2.28;;;;;;;;;;4983858;28;20057;-64
2024/02/14 04:08:23;;;;;;;3.40;1.70;;;;;;;;;;4984654;28;20400;-64
2024/02/14 04:10:54;;;;;;;3.10;1.70;;;;;;;;;;4982083;28;20042;-64
2024/02/14 04:13:22;;;;;;;3.83;1.73;;;;;;;;;;4985191;28;20050;-63
2024/02/14 04:15:48;;;;;;;6.10;2.80;;;;;;;;;;4986946;28;20049;-64
2024/02/14 04:18:18;;;;;;;5.97;2.15;;;;;;;;;;4981487;28;20509;-64
2024/02/14 04:20:44;;;;;;;3.08;1.92;;;;;;;;;;4986295;28;20061;-64
2024/02/14 04:23:10;;;;;;;5.72;2.10;;;;;;;;;;4982189;28;20054;-64
2024/02/14 04:25:37;;;;;;;2.97;1.98;;;;;;;;;;4985006;28;20067;-64
2024/02/14 04:28:03;;;;;;;4.40;2.22;;;;;;;;;;4981607;28;20066;-65
2024/02/14 04:30:29;;;;;;;4.22;2.20;;;;;;;;;;4984025;28;20493;-64
2024/02/14 04:33:09;;;;;;;2.95;1.60;;;;;;;;;;4981974;28;20047;-64
2024/02/14 04:35:35;;;;;;;3.83;2.00;;;;;;;;;;4981507;28;20050;-64
2024/02/14 04:38:02;;;;;;;4.57;1.95;;;;;;;;;;4981849;28;20030;-64
2024/02/14 04:40:28;;;;;;;4.80;2.10;;;;;;;;;;4984961;28;20034;-64
2024/02/14 04:42:54;;;;;;;3.67;2.08;;;;;;;;;;4977231;28;20081;-65
2024/02/14 04:45:20;;;;;;;5.88;2.95;;;;;;;;;;4984155;28;20054;-64
2024/02/14 04:47:56;;;;;;;5.18;2.60;;;;;;;;;;4983738;28;20410;-64
2024/02/14 04:50:22;;;;;;;6.68;2.53;;;;;;;;;;4982090;28;20038;-67
2024/02/14 04:52:48;;;;;;;5.40;2.05;;;;;;;;;;4981552;28;20046;-65
2024/02/14 04:55:14;;;;;;;6.05;2.05;;;;;;;;;;4983703;28;20058;-67
2024/02/14 04:57:40;;;;;;;4.80;2.00;;;;;;;;;;4981645;28;20049;-62
2024/02/14 05:00:09;;;;;;;6.65;2.10;;;;;;;;;;4976305;28;20035;-64
2024/02/14 05:02:36;;;;;;;4.73;2.30;;;;;;;;;;4976970;28;20051;-64
2024/02/14 05:05:03;;;;;;;4.28;2.40;;;;;;;;;;4974808;28;20046;-64
2024/02/14 05:07:31;;;;;;;3.45;2.00;;;;;;;;;;4978316;28;20065;-64
2024/02/14 05:09:57;;;;;;;5.05;2.35;;;;;;;;;;4978541;28;20034;-65
2024/02/14 05:12:23;;;;;;;6.95;2.30;;;;;;;;;;4982449;28;20495;-64
2024/02/14 05:14:50;;;;;;;6.97;2.70;;;;;;;;;;4973905;28;20051;-64
2024/02/14 05:17:16;;;;;;;8.50;3.20;;;;;;;;;;4981905;28;20440;-64
2024/02/14 05:19:43;;;;;;;8.20;4.75;;;;;;;;;;4986639;28;20057;-65
2024/02/14 05:22:09;;;;;;;10.43;5.60;;;;;;;;;;4975990;28;20034;-65
2024/02/14 05:24:38;;;;;;;13.40;7.50;;;;;;;;;;4980471;28;20309;-64
2024/02/14 05:27:05;;;;;;;16.17;8.27;;;;;;;;;;4983695;28;20046;-64
2024/02/14 05:29:31;;;;;;;16.42;8.93;;;;;;;;;;4980277;28;20498;-65
2024/02/14 05:31:57;;;;;;;17.52;8.85;;;;;;;;;;4983371;28;20041;-64
2024/02/14 05:34:23;;;;;;;15.02;9.07;;;;;;;;;;4976842;28;20034;-65
2024/02/14 05:36:49;;;;;;;19.50;8.93;;;;;;;;;;4981918;28;20054;-65
2024/02/14 05:39:15;;;;;;;12.93;8.15;;;;;;;;;;4984177;28;20545;-64
2024/02/14 05:41:41;;;;;;;14.18;7.55;;;;;;;;;;4977684;28;20524;-61
2024/02/14 05:44:08;;;;;;;13.32;8.00;;;;;;;;;;4982305;28;20057;-63
2024/02/14 05:46:34;;;;;;;15.82;8.40;;;;;;;;;;4983414;28;20525;-64
2024/02/14 05:49:00;;;;;;;13.73;7.78;;;;;;;;;;4973783;28;20047;-64
2024/02/14 05:51:26;;;;;;;13.00;7.68;;;;;;;;;;4982957;28;20058;-64
2024/02/14 05:53:52;;;;;;;16.67;9.50;;;;;;;;;;4981500;28;20057;-64
2024/02/14 05:56:18;;;;;;;20.02;11.25;;;;;;;;;;4978600;28;20093;-65
2024/02/14 05:58:44;;;;;;;19.60;9.85;;;;;;;;;;4975333;28;20046;-64
2024/02/14 06:01:11;;;;;;;15.00;7.47;;;;;;;;;;4977106;28;20047;-63
2024/02/14 06:03:37;;;;;;;13.95;6.60;;;;;;;;;;4974166;28;20035;-64
2024/02/14 06:06:03;;;;;;;11.90;5.90;;;;;;;;;;4982371;28;20058;-65
2024/02/14 06:08:29;;;;;;;11.63;3.65;;;;;;;;;;4975348;28;20047;-62
2024/02/14 06:10:55;;;;;;;4.43;2.45;;;;;;;;;;4989192;28;20051;-62
2024/02/14 06:13:21;;;;;;;5.75;2.10;;;;;;;;;;4971943;28;20537;-62
2024/02/14 06:15:47;;;;;;;5.00;2.70;;;;;;;;;;4980916;28;20042;-62
2024/02/14 06:18:13;;;;;;;4.03;1.95;;;;;;;;;;4971371;28;20043;-61
2024/02/14 06:20:40;;;;;;;3.25;2.05;;;;;;;;;;4972536;28;20039;-62
2024/02/14 06:23:07;;;;;;;3.90;1.60;;;;;;;;;;4971184;28;20050;-61
2024/02/14 06:25:33;;;;;;;4.72;1.98;;;;;;;;;;4971816;28;20057;-61
2024/02/14 06:28:05;;;;;;;3.80;2.22;;;;;;;;;;4971640;28;20050;-61
2024/02/14 06:30:31;;;;;;;3.67;1.45;;;;;;;;;;4972722;28;20050;-61
2024/02/14 06:33:00;;;;;;;7.22;1.60;;;;;;;;;;4980927;28;20042;-62
2024/02/14 06:35:26;;;;;;;2.28;1.48;;;;;;;;;;4974814;28;20059;-62
2024/02/14 06:37:52;;;;;;;4.80;1.60;;;;;;;;;;4984353;28;20050;-60
2024/02/14 06:40:19;;;;;;;3.80;1.75;;;;;;;;;;4971582;28;20058;-61
2024/02/14 06:42:45;;;;;;;2.03;1.33;;;;;;;;;;4971375;28;20059;-60
2024/02/14 06:45:11;;;;;;;3.40;1.75;;;;;;;;;;4972684;28;20414;-63
2024/02/14 06:47:37;;;;;;;6.93;4.05;;;;;;;;;;4973692;28;20041;-61
2024/02/14 06:50:03;;;;;;;11.38;7.40;;;;;;;;;;4977100;28;20489;-60
2024/02/14 06:52:31;;;;;;;11.57;8.00;;;;;;;;;;4975830;28;20053;-61
2024/02/14 06:54:57;;;;;;;14.75;8.07;;;;;;;;;;4974455;28;20058;-61
2024/02/14 06:57:23;;;;;;;14.38;7.95;;;;;;;;;;4973088;28;20494;-61
2024/02/14 06:59:49;;;;;;;13.43;7.38;;;;;;;;;;4973900;28;20113;-61
2024/02/14 07:02:16;;;;;;;12.55;6.35;;;;;;;;;;4971097;28;20055;-62
2024/02/14 07:04:42;;;;;;;12.23;5.30;;;;;;;;;;4972928;28;20047;-63
2024/02/14 07:07:08;;;;;;;10.68;4.78;;;;;;;;;;4972802;28;20685;-62
2024/02/14 07:09:36;;;;;;;7.68;4.65;;;;;;;;;;4971330;28;20049;-62
2024/02/14 07:12:03;;;;;;;10.77;4.95;;;;;;;;;;4971599;28;20047;-63
2024/02/14 07:14:29;;;;;;;10.15;4.55;;;;;;;;;;4974557;28;20050;-62
2024/02/14 07:16:55;;;;;;;7.97;4.55;;;;;;;;;;4977311;28;20417;-62
2024/02/14 07:19:21;;;;;;;9.00;5.22;;;;;;;;;;4974695;28;20058;-62
2024/02/14 07:21:47;;;;;;;12.48;6.38;;;;;;;;;;4979632;28;20396;-61
2024/02/14 07:24:13;;;;;;;12.30;6.60;;;;;;;;;;4976205;28;20042;-61
2024/02/14 07:26:41;;;;;;;15.18;7.10;;;;;;;;;;4978470;28;20034;-61
2024/02/14 07:29:07;;;;;;;13.40;7.22;;;;;;;;;;4980683;28;20026;-61
2024/02/14 07:31:34;;;;;;;12.38;7.40;;;;;;;;;;4980408;28;20058;-62
2024/02/14 07:34:02;;;;;;;14.02;7.22;;;;;;;;;;4983322;28;20034;-61
2024/02/14 07:36:30;;;;;;;11.93;7.40;;;;;;;;;;4975755;28;20049;-60
2024/02/14 07:38:56;;;;;;;12.35;7.45;;;;;;;;;;4980697;28;20034;-61
2024/02/14 07:41:22;;;;;;;10.65;5.78;;;;;;;;;;4980250;28;20507;-61
2024/02/14 07:43:53;;;;;;;10.63;6.10;;;;;;;;;;4980130;28;20049;-61
2024/02/14 07:46:20;;;;;;;9.75;5.20;;;;;;;;;;4975998;28;20046;-62
2024/02/14 07:48:46;;;;;;;7.70;4.53;;;;;;;;;;4979874;28;20045;-62
2024/02/14 07:51:12;;;;;;;7.80;4.65;;;;;;;;;;4982257;28;20053;-61
2024/02/14 07:53:38;;;;;;;4.85;4.00;;;;;;;;;;4986859;28;20037;-60
2024/02/14 07:56:05;;;;;;;4.38;2.58;;;;;;;;;;4982816;28;20043;-61
2024/02/14 07:58:31;;;;;;;4.65;2.53;;;;;;;;;;4979885;28;20054;-62
2024/02/14 08:00:57;;;;;;;2.90;1.80;;;;;;;;;;4978338;28;20042;-61
2024/02/14 08:03:24;;;;;;;3.45;1.50;;;;;;;;;;4981897;28;20422;-61
2024/02/14 08:05:51;;;;;;;5.20;1.38;;;;;;;;;;4980181;28;20077;-62
2024/02/14 08:08:17;;;;;;;3.08;1.42;;;;;;;;;;4985681;28;20398;-63
2024/02/14 08:10:44;;;;;;;2.65;1.40;;;;;;;;;;4982122;28;20054;-61
2024/02/14 08:13:15;;;;;;;6.72;1.73;;;;;;;;;;4983820;28;20039;-62
2024/02/14 08:15:41;;;;;;;2.22;1.50;;;;;;;;;;4982414;28;20046;-61
2024/02/14 08:18:07;;;;;;;5.43;1.88;;;;;;;;;;4979932;28;20068;-61
2024/02/14 08:20:33;;;;;;;2.63;1.30;;;;;;;;;;4985379;28;20053;-62
2024/02/14 08:23:09;;;;;;;2.70;1.23;;;;;;;;;;4983393;28;20055;-61
2024/02/14 08:25:35;;;;;;;6.95;2.42;;;;;;;;;;4981161;28;20065;-61
2024/02/14 08:28:02;;;;;;;4.13;2.05;;;;;;;;;;4978395;28;20483;-60
2024/02/14 08:30:28;;;;;;;2.65;1.42;;;;;;;;;;4976480;28;20061;-62
2024/02/14 08:32:54;;;;;;;5.10;1.50;;;;;;;;;;4980521;28;20049;-62
2024/02/14 08:35:21;;;;;;;2.05;1.33;;;;;;;;;;4979977;28;20030;-62
2024/02/14 08:37:47;;;;;;;2.10;1.35;;;;;;;;;;4979145;28;20059;-61
2024/02/14 08:40:14;;;;;;;3.38;1.38;;;;;;;;;;4983384;28;20054;-62
2024/02/14 08:42:40;;;;;;;2.95;1.80;;;;;;;;;;4983857;28;20057;-62
2024/02/14 08:45:08;;;;;;;2.13;1.48;;;;;;;;;;4982598;28;20099;-61
2024/02/14 08:47:34;;;;;;;3.13;1.30;;;;;;;;;;4985779;28;20062;-62
2024/02/14 08:50:01;;;;;;;3.88;1.20;;;;;;;;;;4986964;28;20046;-62
2024/02/14 08:52:28;;;;;;;4.90;1.60;;;;;;;;;;4979410;28;20491;-61
2024/02/14 08:54:54;;;;;;;3.63;1.35;;;;;;;;;;4979600;28;20031;-62
2024/02/14 08:57:20;;;;;;;1.77;1.30;;;;;;;;;;4979246;28;20067;-61
2024/02/14 08:59:48;;;;;;;2.35;1.10;;;;;;;;;;4980848;28;20030;-62
2024/02/14 09:02:14;;;;;;;1.58;1.20;;;;;;;;;;4982624;28;20053;-61
2024/02/14 09:04:44;;;;;;;5.55;1.38;;;;;;;;;;4976037;28;20034;-62
2024/02/14 09:07:10;;;;;;;;;;;;;;;;;;4977426;28;20038;-62
2024/02/14 09:09:37;;;;;;;2.22;1.42;;;;;;;;;;4977991;28;19924;-61
2024/02/14 09:12:04;;;;;;;3.63;1.40;;;;;;;;;;4975843;28;20501;-62
2024/02/14 09:14:31;;;;;;;3.10;1.75;;;;;;;;;;4980305;28;20042;-62
2024/02/14 09:16:57;;;;;;;2.00;1.13;;;;;;;;;;4984444;28;20042;-61
2024/02/14 09:19:25;;;;;;;2.50;1.00;;;;;;;;;;4974214;28;20047;-63
2024/02/14 09:21:51;;;;;;;1.42;0.90;;;;;;;;;;4983107;28;20046;-61
2024/02/14 09:24:17;;;;;;;1.95;1.00;;;;;;;;;;4980162;28;20034;-62
2024/02/14 09:26:43;;;;;;;2.70;1.10;;;;;;;;;;4978430;28;20418;-61
2024/02/14 09:29:10;;;;;;;1.83;1.10;;;;;;;;;;4977922;28;20034;-62
2024/02/14 09:31:37;;;;;;;2.25;1.38;;;;;;;;;;4983805;28;20510;-60
2024/02/14 09:34:03;;;;;;;2.60;1.42;;;;;;;;;;4979720;28;20045;-61
2024/02/14 09:36:30;;;;;;;2.13;1.35;;;;;;;;;;4975805;28;20037;-62
2024/02/14 09:38:57;;;;;;;2.13;1.10;;;;;;;;;;4974325;28;20046;-61
2024/02/14 09:41:37;;;;;;;3.17;1.63;;;;;;;;;;4979773;28;20042;-61
2024/02/14 09:44:03;;;;;;;1.85;1.08;;;;;;;;;;4982460;28;20541;-62
2024/02/14 09:46:30;;;;;;;5.35;1.77;;;;;;;;;;4976718;28;20038;-62
2024/02/14 09:49:01;;;;;;;4.18;1.30;;;;;;;;;;4976922;28;20034;-62
2024/02/14 09:51:29;;;;;;;2.22;1.38;;;;;;;;;;4980925;28;20039;-62
2024/02/14 09:53:55;;;;;;;4.38;2.08;;;;;;;;;;4983615;28;20050;-62
2024/02/14 09:56:25;;;;;;;1.98;1.50;;;;;;;;;;4977481;28;20045;-62
2024/02/14 09:58:56;;;;;;;3.35;2.00;;;;;;;;;;4974649;28;20404;-62
2024/02/14 10:01:23;;;;;;;3.08;1.50;;;;;;;;;;4969492;28;20054;-61
2024/02/14 10:03:51;;;;;;;1.67;1.30;;;;;;;;;;4980991;28;20045;-61
2024/02/14 10:06:21;;;;;;;4.10;1.80;;;;;;;;;;4973819;28;20042;-61
2024/02/14 10:08:51;;;;;;;5.13;1.58;;;;;;;;;;4974138;28;20030;-62
2024/02/14 10:11:21;;;;;;;4.63;1.90;;;;;;;;;;4981487;28;20418;-62
2024/02/14 10:13:50;;;;;;;5.28;1.52;;;;;;;;;;4981999;28;20498;-62
2024/02/14 10:16:17;;;;;;;2.13;1.43;;;;;;;;;;4982666;28;20046;-62
2024/02/14 10:18:45;;;;;;;2.97;1.48;;;;;;;;;;4984897;28;20046;-61
2024/02/14 10:21:16;;;;;;;7.25;2.35;;;;;;;;;;4978781;28;20409;-61
2024/02/14 10:23:43;;;;;;;2.40;1.50;;;;;;;;;;4975824;28;20047;-63
2024/02/14 10:26:09;;;;;;;9.48;2.17;;;;;;;;;;4976716;28;20051;-61
2024/02/14 10:28:36;;;;;;;3.17;1.50;;;;;;;;;;4979284;28;20046;-62
2024/02/14 10:31:04;;;;;;;4.05;1.80;;;;;;;;;;4977239;28;20027;-62
2024/02/14 10:33:31;;;;;;;2.47;1.53;;;;;;;;;;4976948;28;20045;-61
2024/02/14 10:35:57;;;;;;;4.22;1.50;;;;;;;;;;4980211;28;20301;-60
2024/02/14 10:38:25;;;;;;;2.55;1.35;;;;;;;;;;4982898;28;20061;-62
2024/02/14 10:40:53;;;;;;;3.75;1.30;;;;;;;;;;4980540;28;20046;-61
2024/02/14 10:43:19;;;;;;;8.30;2.05;;;;;;;;;;4981719;28;20050;-61
2024/02/14 10:45:45;;;;;;;2.88;1.40;;;;;;;;;;4984083;28;20041;-61
2024/02/14 10:48:12;;;;;;;2.55;1.45;;;;;;;;;;4981743;28;20045;-62
2024/02/14 10:50:47;;;;;;;4.53;1.50;;;;;;;;;;4983641;28;20046;-58
2024/02/14 10:53:15;;;;;;;3.60;1.40;;;;;;;;;;4982900;28;20055;-62
2024/02/14 10:55:45;;;;;;;4.38;1.45;;;;;;;;;;4985091;28;20049;-61
2024/02/14 10:58:14;;;;;;;4.10;1.50;;;;;;;;;;4985137;28;20054;-62
2024/02/14 11:00:41;;;;;;;3.22;1.55;;;;;;;;;;4982674;28;20026;-62
2024/02/14 11:03:08;;;;;;;3.50;1.70;;;;;;;;;;4979145;28;20042;-61
2024/02/14 11:05:47;;;;;;;3.80;1.23;;;;;;;;;;4985662;28;20039;-63
2024/02/14 11:08:25;;;;;;;4.13;1.58;;;;;;;;;;4983743;28;20054;-60
2024/02/14 11:10:56;;;;;;;5.55;1.90;;;;;;;;;;4985922;28;20051;-61
2024/02/14 11:13:27;;;;;;;3.65;1.80;;;;;;;;;;4981526;28;20058;-61
2024/02/14 11:15:55;;;;;;;3.15;1.60;;;;;;;;;;4984075;28;20430;-61
2024/02/14 11:18:31;;;;;;;5.35;1.88;;;;;;;;;;4986845;28;20043;-63
2024/02/14 11:20:57;;;;;;;3.65;1.30;;;;;;;;;;4980971;28;20047;-62
2024/02/14 11:23:26;;;;;;;2.78;1.08;;;;;;;;;;4984332;28;20050;-62
2024/02/14 11:26:02;;;;;;;1.48;1.38;;;;;;;;;;4983887;28;20034;-62
2024/02/14 11:28:30;;;;;;;1.65;1.08;;;;;;;;;;4984593;28;20049;-62
2024/02/14 11:31:03;;;;;;;1.80;1.08;;;;;;;;;;4978129;28;20410;-62
2024/02/14 11:33:29;;;;;;;1.00;0.75;;;;;;;;;;4980179;28;20057;-62
2024/02/14 11:35:57;;;;;;;3.17;1.15;;;;;;;;;;4983920;28;20043;-62
2024/02/14 11:38:25;;;;;;;3.83;1.10;;;;;;;;;;4985957;28;20049;-62
2024/02/14 11:40:56;;;;;;;2.83;1.40;;;;;;;;;;4983059;28;20797;-62
2024/02/14 11:43:23;;;;;;;1.75;1.00;;;;;;;;;;4987860;28;20518;-62
2024/02/14 11:45:49;;;;;;;2.95;1.40;;;;;;;;;;4980294;28;20034;-63
2024/02/14 11:48:16;;;;;;;2.67;1.55;;;;;;;;;;4981694;28;20065;-61
2024/02/14 11:50:45;;;;;;;2.13;1.20;;;;;;;;;;4981009;28;20109;-63
2024/02/14 11:53:13;;;;;;;4.78;1.17;;;;;;;;;;4979892;28;20057;-63
2024/02/14 11:55:41;;;;;;;1.20;0.90;;;;;;;;;;4980254;28;20047;-63
2024/02/14 11:58:11;;;;;;;3.00;0.90;;;;;;;;;;4978845;28;20050;-62
2024/02/14 12:00:40;;;;;;;1.55;1.27;;;;;;;;;;4981502;28;20064;-63
2024/02/14 12:03:27;;;;;;;1.25;0.80;;;;;;;;;;4981706;28;20411;-62
2024/02/14 12:05:54;;;;;;;1.80;0.80;;;;;;;;;;4986722;28;20037;-63
2024/02/14 12:08:21;;;;;;;1.35;0.80;;;;;;;;;;4982379;28;20047;-61
2024/02/14 12:10:49;;;;;;;1.10;0.60;;;;;;;;;;4985670;28;20053;-62
2024/02/14 12:13:17;;;;;;;3.30;0.70;;;;;;;;;;4985552;28;20065;-62
2024/02/14 12:15:48;;;;;;;0.80;0.57;;;;;;;;;;4983104;28;20042;-62
2024/02/14 12:18:19;;;;;;;1.45;1.00;;;;;;;;;;4988116;28;20038;-63
2024/02/14 12:20:46;;;;;;;2.30;0.88;;;;;;;;;;4984983;28;20421;-62
2024/02/14 12:23:21;;;;;;;1.75;0.80;;;;;;;;;;4980240;28;20030;-62
2024/02/14 12:25:48;;;;;;;1.45;0.80;;;;;;;;;;4978353;28;20395;-62
2024/02/14 12:28:17;;;;;;;1.58;0.80;;;;;;;;;;4979777;28;20054;-62
2024/02/14 12:30:56;;;;;;;1.88;0.80;;;;;;;;;;4977901;28;20030;-62
2024/02/14 12:33:24;;;;;;;1.30;0.90;;;;;;;;;;4980575;28;20051;-62
2024/02/14 12:35:51;;;;;;;2.92;1.52;;;;;;;;;;4982258;28;20679;-62
2024/02/14 12:38:19;;;;;;;3.22;0.70;;;;;;;;;;4983372;28;20069;-62
2024/02/14 12:40:46;;;;;;;1.10;0.70;;;;;;;;;;4980722;28;20525;-62
2024/02/14 12:43:14;;;;;;;1.50;1.00;;;;;;;;;;4980846;28;20058;-61
2024/02/14 12:45:41;;;;;;;1.27;0.80;;;;;;;;;;4985278;28;20042;-61
2024/02/14 12:48:09;;;;;;;1.63;0.70;;;;;;;;;;4982860;28;20042;-63
2024/02/14 12:50:39;;;;;;;0.95;0.60;;;;;;;;;;4983616;28;20529;-62
2024/02/14 12:53:06;;;;;;;2.30;1.00;;;;;;;;;;4980966;28;20482;-63
2024/02/14 12:55:33;;;;;;;1.25;1.00;;;;;;;;;;4973936;28;20046;-62
2024/02/14 12:57:59;;;;;;;1.52;1.10;;;;;;;;;;4980758;28;20517;-62
2024/02/14 13:00:26;;;;;;;2.45;1.25;;;;;;;;;;4978083;28;20075;-62
2024/02/14 13:02:53;;;;;;;1.45;0.95;;;;;;;;;;4979680;28;20027;-62
2024/02/14 13:05:19;;;;;;;1.98;0.70;;;;;;;;;;4979690;28;20046;-62
2024/02/14 13:07:46;;;;;;;1.83;0.70;;;;;;;;;;4980852;28;20030;-63
2024/02/14 13:10:13;;;;;;;3.00;0.90;;;;;;;;;;4979573;28;20062;-63
2024/02/14 13:12:39;;;;;;;1.55;0.82;;;;;;;;;;4979756;28;20502;-62
2024/02/14 13:15:06;;;;;;;0.90;0.60;;;;;;;;;;4983558;28;20512;-62
2024/02/14 13:17:32;;;;;;;1.35;0.77;;;;;;;;;;4977099;28;20513;-62
2024/02/14 13:19:59;;;;;;;0.90;0.57;;;;;;;;;;4982434;28;20034;-61
2024/02/14 13:22:26;;;;;;;3.15;1.70;;;;;;;;;;4973342;28;20406;-61
2024/02/14 13:24:52;;;;;;;2.35;1.10;;;;;;;;;;4978743;28;20079;-60
2024/02/14 13:27:21;;;;;;;1.95;1.30;;;;;;;;;;4977335;28;20042;-61
2024/02/14 13:29:47;;;;;;;2.47;1.30;;;;;;;;;;4978245;28;20030;-62
2024/02/14 13:32:14;;;;;;;1.73;1.10;;;;;;;;;;4978766;28;20053;-61
2024/02/14 13:34:47;;;;;;;1.65;0.90;;;;;;;;;;5069122;28;20439;-61
2024/02/14 13:37:15;;;;;;;2.42;1.17;;;;;;;;;;5065174;28;20051;-61
2024/02/14 13:39:41;;;;;;;1.52;0.90;;;;;;;;;;5062714;28;20048;-62
2024/02/14 13:42:07;;;;;;;3.00;0.80;;;;;;;;;;5055614;28;20049;-62
2024/02/14 13:44:34;;;;;;;1.73;0.60;;;;;;;;;;5052796;28;20392;-61
2024/02/14 13:47:00;;;;;;;1.95;0.60;;;;;;;;;;5052074;28;20049;-62
2024/02/14 13:49:27;;;;;;;3.47;0.60;;;;;;;;;;5043876;28;20045;-62
2024/02/14 13:51:54;;;;;;;0.93;0.55;;;;;;;;;;5046413;28;20056;-62
2024/02/14 13:54:21;;;;;;;1.60;0.60;;;;;;;;;;5051500;28;20037;-61
2024/02/14 13:56:48;;;;;;;1.60;0.80;;;;;;;;;;5047447;28;20057;-62
2024/02/14 13:59:14;;;;;;;4.68;0.68;;;;;;;;;;5049273;28;20041;-61
2024/02/14 14:01:41;;;;;;;1.58;0.70;;;;;;;;;;5057661;28;20037;-62
2024/02/14 14:04:07;;;;;;;1.15;0.85;;;;;;;;;;5051943;28;20037;-62
2024/02/14 14:06:34;;;;;;;1.20;0.60;;;;;;;;;;5049705;28;20044;-61
2024/02/14 14:09:03;;;;;;;2.30;0.60;;;;;;;;;;5047634;28;20040;-60
2024/02/14 14:11:29;;;;;;;2.28;1.23;;;;;;;;;;5050536;28;20036;-60
2024/02/14 14:13:55;;;;;;;1.20;1.02;;;;;;;;;;5052617;28;20401;-61
2024/02/14 14:16:21;;;;;;;1.50;1.13;;;;;;;;;;5054878;28;20040;-63
2024/02/14 14:18:51;;;;;;;0.80;0.70;;;;;;;;;;5056869;28;20040;-62
2024/02/14 14:21:17;;;;;;;;;;;;;;;;;;5055799;28;20053;-61
2024/02/14 14:23:43;;;;;;;3.45;0.70;;;;;;;;;;5055166;28;20292;-62
2024/02/14 14:26:10;;;;;;;1.35;0.77;;;;;;;;;;5055777;28;20040;-62
2024/02/14 14:28:36;;;;;;;1.10;0.80;;;;;;;;;;5053118;28;20040;-62
2024/02/14 14:31:02;;;;;;;2.25;0.80;;;;;;;;;;5047544;28;20044;-63
2024/02/14 14:33:29;;;;;;;3.63;0.80;;;;;;;;;;5051737;28;20033;-62
2024/02/14 14:35:56;;;;;;;0.68;0.68;;;;;;;;;;5047405;28;20412;-63
2024/02/14 14:38:22;;;;;;;1.30;0.90;;;;;;;;;;5055053;28;20037;-62
2024/02/14 14:40:48;;;;;;;4.70;1.50;;;;;;;;;;5051319;28;20076;-62
2024/02/14 14:43:15;;;;;;;1.55;0.65;;;;;;;;;;5055818;28;20529;-62
2024/02/14 14:45:42;;;;;;;1.50;0.80;;;;;;;;;;5034902;28;20056;-62